Flinterborg — PHPH — position and weather

sailwx.info

Track history (hours):
 
Tides and Currents Weather Stations Pressure Air Temp Water Temp Dewpoint Dewpoint Depression Visibility Wind Speed Wind Dir Waves Ship Positions

Flinterborg

Last reported at 2017-Feb-23 13:20 UTC. Time now 2017-Feb-24 08:21 UTC.
Position N 39°32' W 000°07'.

Length 111 m; draft 6.2 m.

Type: Ship. MMSI: 245433000.

Date/timePositionNaut miles runAvg speedWind from/ knotsBaromVisibWave heightAir tempDewpointWater temp
2017-Feb-23 13:20N 39°32' W 000°07'311 7.1
2017-Feb-21 17:28N 36°05' W 005°01'6 6.4
2017-Feb-21 16:29N 36°03' W 005°08'6 6.5
2017-Feb-21 15:34N 36°01' W 005°15'6 6.3
2017-Feb-21 14:33N 35°59' W 005°23'6 6.1
2017-Feb-21 13:33N 35°57' W 005°30'7 6.6
2017-Feb-21 12:34N 35°56' W 005°38'247 7.4
2017-Feb-20 03:08N 38°12' W 009°56'611.0
2017-Feb-20 02:33N 38°18' W 009°58'1111.1
2017-Feb-20 01:33N 38°29' W 010°01'1111.0
2017-Feb-20 00:33N 38°40' W 010°04'1111.3
2017-Feb-19 23:33N 38°51' W 010°05'1211.6
2017-Feb-19 22:33N 39°03' W 010°05'2311.6
2017-Feb-19 20:32N 39°26' W 010°05'  
2017-Feb-17 05:30N 49°31' W 004°05'2712.3
2017-Feb-17 03:17N 49°45' W 003°29'912.3
2017-Feb-17 02:33N 49°49' W 003°16'1211.6
2017-Feb-17 01:33N 49°55' W 003°01'10311.3
2017-Feb-16 16:27N 50°27' W 000°27'1112.5
2017-Feb-16 15:33N 50°30' W 000°11'1211.5
2017-Feb-16 14:33N 50°33' E 000°07'5610.6
2017-Feb-16 09:14N 51°02' E 001°23'812.5
2017-Feb-16 08:34N 51°08' E 001°34'1111.3
2017-Feb-16 07:34N 51°15' E 001°47'1010.4
2017-Feb-16 06:33N 51°23' E 001°57'10 9.6
2017-Feb-16 05:33N 51°22' E 002°12'10 9.5
2017-Feb-16 04:33N 51°22' E 002°28'10 9.6
2017-Feb-16 03:33N 51°23' E 002°43'9 8.6
2017-Feb-16 02:33N 51°23' E 002°56'1010.0
2017-Feb-16 01:33N 51°24' E 003°12'1110.7
2017-Feb-16 00:33N 51°25' E 003°29'33 7.8
2017-Feb-15 20:22N 51°17' E 004°20'  
Track history (hours):
 
Tides and Currents Weather Stations Pressure Air Temp Water Temp Dewpoint Dewpoint Depression Visibility Wind Speed Wind Dir Waves Ship Positions

Flinterborg

Last reported at 2017-Feb-23 13:20 UTC. Time now 2017-Feb-24 08:21 UTC.
Position N 39°32' W 000°07'.

Length 111 m; draft 6.2 m.

Type: Ship. MMSI: 245433000.

Date/timePositionNaut miles runAvg speedWind from/ knotsBaromVisibWave heightAir tempDewpointWater temp
2017-Feb-23 13:20N 39°32' W 000°07'311 7.1
2017-Feb-21 17:28N 36°05' W 005°01'6 6.4
2017-Feb-21 16:29N 36°03' W 005°08'6 6.5
2017-Feb-21 15:34N 36°01' W 005°15'6 6.3
2017-Feb-21 14:33N 35°59' W 005°23'6 6.1
2017-Feb-21 13:33N 35°57' W 005°30'7 6.6
2017-Feb-21 12:34N 35°56' W 005°38'247 7.4
2017-Feb-20 03:08N 38°12' W 009°56'611.0
2017-Feb-20 02:33N 38°18' W 009°58'1111.1
2017-Feb-20 01:33N 38°29' W 010°01'1111.0
2017-Feb-20 00:33N 38°40' W 010°04'1111.3
2017-Feb-19 23:33N 38°51' W 010°05'1211.6
2017-Feb-19 22:33N 39°03' W 010°05'2311.6
2017-Feb-19 20:32N 39°26' W 010°05'  
2017-Feb-17 05:30N 49°31' W 004°05'2712.3
2017-Feb-17 03:17N 49°45' W 003°29'912.3
2017-Feb-17 02:33N 49°49' W 003°16'1211.6
2017-Feb-17 01:33N 49°55' W 003°01'10311.3
2017-Feb-16 16:27N 50°27' W 000°27'1112.5
2017-Feb-16 15:33N 50°30' W 000°11'1211.5
2017-Feb-16 14:33N 50°33' E 000°07'5610.6
2017-Feb-16 09:14N 51°02' E 001°23'812.5
2017-Feb-16 08:34N 51°08' E 001°34'1111.3
2017-Feb-16 07:34N 51°15' E 001°47'1010.4
2017-Feb-16 06:33N 51°23' E 001°57'10 9.6
2017-Feb-16 05:33N 51°22' E 002°12'10 9.5
2017-Feb-16 04:33N 51°22' E 002°28'10 9.6
2017-Feb-16 03:33N 51°23' E 002°43'9 8.6
2017-Feb-16 02:33N 51°23' E 002°56'1010.0
2017-Feb-16 01:33N 51°24' E 003°12'1110.7
2017-Feb-16 00:33N 51°25' E 003°29'33 7.8
2017-Feb-15 20:22N 51°17' E 004°20'  

Dump ship's entire track history